createdAt,value
2022-12-11T00:00:29.254Z,37.03
2022-12-11T00:02:56.990Z,38.20
2022-12-11T00:05:24.397Z,37.97
2022-12-11T00:07:51.707Z,39.97
2022-12-11T00:10:19.530Z,38.07
2022-12-11T00:12:46.793Z,37.20
2022-12-11T00:15:14.136Z,39.27
2022-12-11T00:17:41.602Z,38.70
2022-12-11T00:20:09.768Z,37.93
2022-12-11T00:22:37.128Z,36.67
2022-12-11T00:25:05.619Z,37.87
2022-12-11T00:27:33.562Z,38.87
2022-12-11T00:30:01.125Z,38.63
2022-12-11T00:32:29.126Z,36.37
2022-12-11T00:34:57.348Z,36.80
2022-12-11T00:37:24.806Z,36.00
2022-12-11T00:39:52.102Z,36.03
2022-12-11T00:42:19.354Z,37.67
2022-12-11T00:44:46.603Z,35.53
2022-12-11T00:47:14.137Z,37.53
2022-12-11T00:49:48.034Z,35.17
2022-12-11T00:52:18.290Z,35.67
2022-12-11T00:54:45.947Z,37.30
2022-12-11T00:57:13.171Z,35.93
2022-12-11T00:59:40.570Z,35.57
2022-12-11T01:02:07.826Z,33.83
2022-12-11T01:04:37.105Z,33.37
2022-12-11T01:07:04.568Z,32.40
2022-12-11T01:09:50.264Z,32.87
2022-12-11T01:12:17.500Z,32.20
2022-12-11T01:14:44.921Z,31.83
2022-12-11T01:17:12.224Z,30.83
2022-12-11T01:19:39.604Z,31.70
2022-12-11T01:22:06.941Z,32.27
2022-12-11T01:24:34.233Z,32.60
2022-12-11T01:27:01.459Z,31.93
2022-12-11T01:29:28.744Z,31.87
2022-12-11T01:31:56.045Z,30.10
2022-12-11T01:34:23.340Z,31.50
2022-12-11T01:36:52.846Z,32.47
2022-12-11T01:39:20.187Z,31.00
2022-12-11T01:41:47.478Z,31.17
2022-12-11T01:44:15.013Z,31.70
2022-12-11T01:46:43.471Z,30.57
2022-12-11T01:49:14.269Z,31.47
2022-12-11T01:51:51.007Z,30.57
2022-12-11T01:54:20.862Z,30.50
2022-12-11T01:56:50.425Z,32.87
2022-12-11T01:59:23.006Z,31.53
2022-12-11T02:02:14.692Z,30.50
2022-12-11T02:04:44.438Z,31.03
2022-12-11T02:07:12.006Z,31.07
2022-12-11T02:09:41.968Z,31.90
2022-12-11T02:12:22.920Z,32.37
2022-12-11T02:14:59.173Z,31.90
2022-12-11T02:17:36.163Z,31.27
2022-12-11T02:20:24.220Z,31.83
2022-12-11T02:23:09.607Z,31.93
2022-12-11T02:25:54.646Z,32.37
2022-12-11T02:28:25.561Z,30.90
2022-12-11T02:31:17.108Z,30.53
2022-12-11T02:34:17.167Z,32.90
2022-12-11T02:36:49.910Z,32.40
2022-12-11T02:39:19.529Z,31.37
2022-12-11T02:41:51.495Z,33.37
2022-12-11T02:44:24.587Z,33.37
2022-12-11T02:46:53.775Z,31.80
2022-12-11T02:49:23.611Z,32.10
2022-12-11T02:51:52.996Z,32.53
2022-12-11T02:54:33.479Z,32.73
2022-12-11T02:57:18.130Z,31.87
2022-12-11T02:59:46.910Z,31.57
2022-12-11T03:02:16.001Z,31.50
2022-12-11T03:04:44.787Z,32.07
2022-12-11T03:07:18.293Z,32.10
2022-12-11T03:09:49.018Z,31.10
2022-12-11T03:12:22.702Z,32.70
2022-12-11T03:14:50.615Z,34.00
2022-12-11T03:17:23.915Z,32.27
2022-12-11T03:20:07.928Z,32.20
2022-12-11T03:22:39.852Z,33.37
2022-12-11T03:25:15.882Z,33.43
2022-12-11T03:28:06.494Z,34.50
2022-12-11T03:30:37.518Z,35.57
2022-12-11T03:33:12.304Z,35.17
2022-12-11T03:35:44.081Z,35.80
2022-12-11T03:38:16.513Z,37.03
2022-12-11T03:40:47.371Z,36.00
2022-12-11T03:43:16.968Z,36.10
2022-12-11T03:45:47.386Z,37.80
2022-12-11T03:48:17.697Z,35.37
2022-12-11T03:50:47.545Z,35.37
2022-12-11T03:53:16.470Z,36.63
2022-12-11T03:55:44.482Z,35.77
2022-12-11T03:58:11.953Z,36.60
2022-12-11T04:00:39.534Z,35.43
2022-12-11T04:03:14.603Z,36.77
2022-12-11T04:05:51.704Z,35.00
2022-12-11T04:08:21.304Z,35.97
2022-12-11T04:11:09.902Z,36.80
2022-12-11T04:13:37.736Z,35.17
2022-12-11T04:16:05.632Z,35.53
2022-12-11T04:18:51.317Z,36.43
2022-12-11T04:21:39.635Z,38.50
2022-12-11T04:24:17.031Z,37.17
2022-12-11T04:26:48.483Z,35.67
2022-12-11T04:29:15.863Z,36.47
2022-12-11T04:31:43.351Z,35.57
2022-12-11T04:34:10.899Z,35.97
2022-12-11T04:36:38.435Z,37.20
2022-12-11T04:39:06.374Z,36.77
2022-12-11T04:41:33.766Z,37.67
2022-12-11T04:44:01.078Z,37.77
2022-12-11T04:46:28.382Z,35.50
2022-12-11T04:48:57.876Z,35.03
2022-12-11T04:51:26.152Z,35.83
2022-12-11T04:53:54.493Z,36.73
2022-12-11T04:56:22.606Z,38.27
2022-12-11T04:58:49.878Z,36.97
2022-12-11T05:01:19.788Z,38.13
2022-12-11T05:03:48.026Z,38.20
2022-12-11T05:06:16.011Z,40.27
2022-12-11T05:08:44.098Z,37.60
2022-12-11T05:11:14.245Z,36.57
2022-12-11T05:13:42.320Z,37.97
2022-12-11T05:16:12.531Z,36.77
2022-12-11T05:18:40.122Z,38.90
2022-12-11T05:21:10.556Z,37.97
2022-12-11T05:23:38.632Z,37.60
2022-12-11T05:26:08.366Z,36.40
2022-12-11T05:28:38.331Z,37.23
2022-12-11T05:31:18.667Z,38.43
2022-12-11T05:33:47.260Z,36.33
2022-12-11T05:36:17.924Z,34.97
2022-12-11T05:38:45.973Z,36.43
2022-12-11T05:41:16.628Z,37.00
2022-12-11T05:43:44.169Z,35.20
2022-12-11T05:46:20.761Z,38.63
2022-12-11T05:48:56.726Z,37.37
2022-12-11T05:51:24.160Z,35.27
2022-12-11T05:53:52.705Z,37.60
2022-12-11T05:56:26.852Z,37.03
2022-12-11T05:58:54.794Z,36.90
2022-12-11T06:01:43.396Z,36.17
2022-12-11T06:04:13.619Z,34.83
2022-12-11T06:06:41.555Z,33.60
2022-12-11T06:09:08.992Z,32.43
2022-12-11T06:11:36.652Z,32.30
2022-12-11T06:14:04.573Z,30.33
2022-12-11T06:16:32.977Z,31.77
2022-12-11T06:19:00.604Z,32.20
2022-12-11T06:21:30.518Z,32.60
2022-12-11T06:24:02.519Z,31.70
2022-12-11T06:26:32.352Z,31.97
2022-12-11T06:28:59.726Z,32.73
2022-12-11T06:31:27.748Z,32.37
2022-12-11T06:33:55.538Z,33.30
2022-12-11T06:36:24.771Z,33.40
2022-12-11T06:38:52.969Z,33.63
2022-12-11T06:41:20.231Z,32.70
2022-12-11T06:43:47.581Z,33.60
2022-12-11T06:46:17.487Z,33.17
2022-12-11T06:48:45.605Z,33.07
2022-12-11T06:51:18.631Z,33.00
2022-12-11T06:53:51.614Z,31.67
2022-12-11T06:56:18.938Z,32.23
2022-12-11T06:58:46.803Z,33.67
2022-12-11T07:01:18.948Z,34.40
2022-12-11T07:03:47.046Z,33.40
2022-12-11T07:06:14.779Z,32.17
2022-12-11T07:08:42.679Z,30.97
2022-12-11T07:11:12.815Z,31.33
2022-12-11T07:13:42.367Z,30.03
2022-12-11T07:16:11.793Z,29.23
2022-12-11T07:18:40.408Z,28.17
2022-12-11T07:21:09.804Z,29.63
2022-12-11T07:23:37.589Z,29.17
2022-12-11T07:26:13.990Z,28.97
2022-12-11T07:28:42.170Z,29.17
2022-12-11T07:31:15.801Z,31.97
2022-12-11T07:33:43.681Z,31.27
2022-12-11T07:36:13.466Z,30.20
2022-12-11T07:38:41.557Z,32.27
2022-12-11T07:41:12.711Z,31.47
2022-12-11T07:43:40.566Z,29.93
2022-12-11T07:46:11.856Z,29.97
2022-12-11T07:48:42.670Z,31.77
2022-12-11T07:51:20.296Z,33.70
2022-12-11T07:53:50.051Z,29.40
2022-12-11T07:56:18.848Z,31.87
2022-12-11T07:58:46.943Z,30.80
2022-12-11T08:01:20.898Z,30.33
2022-12-11T08:03:48.992Z,31.60
2022-12-11T08:06:16.634Z,30.97
2022-12-11T08:08:44.116Z,30.63
2022-12-11T08:11:14.849Z,33.53
2022-12-11T08:13:43.351Z,30.47
2022-12-11T08:16:13.425Z,31.17
2022-12-11T08:18:43.160Z,31.93
2022-12-11T08:21:16.552Z,29.60
2022-12-11T08:23:44.568Z,30.07
2022-12-11T08:26:14.960Z,32.07
2022-12-11T08:28:42.558Z,30.83
2022-12-11T08:31:11.860Z,30.37
2022-12-11T08:33:40.597Z,32.37
2022-12-11T08:36:11.221Z,29.10
2022-12-11T08:38:39.409Z,29.37
2022-12-11T08:41:13.821Z,32.27
2022-12-11T08:43:44.272Z,29.37
2022-12-11T08:46:13.160Z,29.40
2022-12-11T08:48:42.545Z,30.17
2022-12-11T08:51:13.858Z,29.50
2022-12-11T08:53:41.431Z,30.47
2022-12-11T08:56:15.128Z,29.90
2022-12-11T08:58:43.596Z,30.97
2022-12-11T09:01:17.062Z,29.70
2022-12-11T09:03:44.506Z,30.00
2022-12-11T09:06:15.005Z,31.97
2022-12-11T09:08:46.046Z,30.77
2022-12-11T09:11:24.999Z,30.17
2022-12-11T09:13:53.146Z,28.57
2022-12-11T09:16:22.916Z,29.97
2022-12-11T09:18:52.065Z,31.03
2022-12-11T09:21:21.964Z,30.90
2022-12-11T09:23:50.077Z,32.60
2022-12-11T09:26:19.028Z,30.73
2022-12-11T09:28:51.592Z,30.60
2022-12-11T09:31:24.082Z,30.13
2022-12-11T09:33:54.213Z,30.63
2022-12-11T09:36:23.996Z,30.40
2022-12-11T09:38:51.670Z,30.67
2022-12-11T09:41:22.038Z,30.10
2022-12-11T09:44:08.387Z,30.13
2022-12-11T09:46:37.051Z,30.10
2022-12-11T09:49:23.464Z,30.47
2022-12-11T09:52:00.871Z,30.07
2022-12-11T09:54:28.512Z,30.73
2022-12-11T09:57:13.084Z,29.00
2022-12-11T10:00:04.763Z,29.40
2022-12-11T10:02:50.246Z,31.17
2022-12-11T10:05:42.145Z,30.50
2022-12-11T10:08:57.410Z,28.47
2022-12-11T10:11:56.720Z,29.93
2022-12-11T10:14:42.395Z,30.57
2022-12-11T10:17:35.380Z,30.23
2022-12-11T10:20:17.490Z,30.27
2022-12-11T10:22:45.805Z,28.73
2022-12-11T10:25:36.171Z,28.30
2022-12-11T10:28:14.606Z,28.07
2022-12-11T10:31:00.356Z,29.87
2022-12-11T10:33:57.977Z,30.23
2022-12-11T10:36:40.336Z,27.37
2022-12-11T10:39:16.836Z,27.97
2022-12-11T10:41:49.628Z,31.13
2022-12-11T10:44:27.708Z,30.67
2022-12-11T10:47:12.073Z,29.67
2022-12-11T10:49:44.226Z,30.30
2022-12-11T10:52:23.795Z,31.10
2022-12-11T10:55:17.881Z,31.30
2022-12-11T10:57:46.316Z,31.90
2022-12-11T11:00:42.178Z,28.43
2022-12-11T11:03:26.359Z,29.20
2022-12-11T11:06:17.419Z,29.57
2022-12-11T11:08:51.696Z,29.93
2022-12-11T11:11:27.389Z,28.50
2022-12-11T11:14:17.277Z,27.53
2022-12-11T11:16:47.278Z,25.97
2022-12-11T11:19:35.164Z,26.20
2022-12-11T11:22:16.083Z,28.63
2022-12-11T11:25:00.141Z,27.50
2022-12-11T11:27:36.909Z,26.50
2022-12-11T11:30:17.602Z,27.83
2022-12-11T11:32:45.352Z,29.90
2022-12-11T11:35:12.767Z,27.73
2022-12-11T11:37:42.508Z,28.63
2022-12-11T11:40:20.472Z,29.53
2022-12-11T11:42:52.427Z,28.87
2022-12-11T11:45:46.690Z,27.97
2022-12-11T11:48:20.276Z,30.07
2022-12-11T11:50:50.850Z,30.43
2022-12-11T11:53:42.050Z,29.13
2022-12-11T11:56:38.369Z,28.23
2022-12-11T11:59:27.067Z,26.47
2022-12-11T12:01:57.788Z,26.73
2022-12-11T12:04:34.875Z,28.13
2022-12-11T12:07:17.402Z,26.70
2022-12-11T12:10:35.641Z,24.87
2022-12-11T12:13:30.425Z,24.83
2022-12-11T12:16:01.692Z,23.77
2022-12-11T12:18:47.951Z,21.50
2022-12-11T12:21:24.811Z,20.63
2022-12-11T12:23:52.063Z,19.73
2022-12-11T12:26:35.880Z,20.30
2022-12-11T12:29:18.025Z,20.23
2022-12-11T12:31:54.117Z,18.33
2022-12-11T12:34:21.355Z,19.10
2022-12-11T12:37:01.293Z,18.20
2022-12-11T12:39:59.071Z,17.73
2022-12-11T12:42:33.096Z,17.37
2022-12-11T12:45:07.647Z,17.90
2022-12-11T12:47:37.096Z,18.23
2022-12-11T12:50:10.752Z,19.00
2022-12-11T12:52:41.453Z,16.33
2022-12-11T12:55:14.894Z,17.30
2022-12-11T12:57:58.200Z,17.07
2022-12-11T13:00:34.563Z,18.17
2022-12-11T13:03:13.271Z,16.47
2022-12-11T13:05:55.158Z,18.27
2022-12-11T13:08:48.278Z,17.83
2022-12-11T13:11:18.944Z,19.40
2022-12-11T13:14:02.197Z,16.93
2022-12-11T13:16:37.450Z,15.23
2022-12-11T13:19:23.000Z,17.70
2022-12-11T13:22:16.455Z,17.73
2022-12-11T13:25:27.431Z,15.97
2022-12-11T13:28:08.384Z,16.00
2022-12-11T13:30:35.851Z,16.40
2022-12-11T13:33:15.192Z,19.53
2022-12-11T13:35:42.743Z,18.63
2022-12-11T13:38:19.419Z,20.40
2022-12-11T13:40:53.812Z,19.30
2022-12-11T13:43:30.299Z,19.77
2022-12-11T13:46:11.093Z,17.80
2022-12-11T13:48:47.138Z,18.83
2022-12-11T13:51:19.474Z,18.33
2022-12-11T13:53:47.253Z,19.50
2022-12-11T13:56:18.930Z,18.87
2022-12-11T13:58:47.898Z,20.03
2022-12-11T14:01:29.049Z,18.63
2022-12-11T14:04:12.099Z,17.63
2022-12-11T14:06:40.679Z,16.87
2022-12-11T14:09:09.947Z,17.57
2022-12-11T14:11:41.219Z,19.00
2022-12-11T14:14:22.407Z,17.37
2022-12-11T14:16:52.267Z,19.60
2022-12-11T14:19:22.163Z,15.90
2022-12-11T14:22:08.472Z,17.53
2022-12-11T14:24:48.874Z,17.30
2022-12-11T14:27:19.171Z,15.97
2022-12-11T14:29:47.336Z,16.93
2022-12-11T14:32:34.249Z,17.20
2022-12-11T14:35:05.682Z,15.33
2022-12-11T14:37:35.476Z,16.73
2022-12-11T14:40:17.651Z,17.03
2022-12-11T14:42:55.683Z,17.93
2022-12-11T14:45:36.951Z,16.87
2022-12-11T14:48:12.538Z,17.73
2022-12-11T14:50:44.579Z,18.03
2022-12-11T14:53:25.852Z,18.13
2022-12-11T14:55:56.837Z,18.00
2022-12-11T14:58:29.542Z,14.83
2022-12-11T15:01:02.774Z,15.90
2022-12-11T15:03:39.981Z,18.37
2022-12-11T15:06:26.312Z,15.10
2022-12-11T15:08:57.255Z,19.57
2022-12-11T15:11:30.619Z,18.70
2022-12-11T15:14:05.776Z,18.03
2022-12-11T15:16:38.200Z,17.30
2022-12-11T15:19:06.872Z,17.57
2022-12-11T15:21:38.005Z,18.20
2022-12-11T15:24:28.516Z,21.03
2022-12-11T15:27:00.083Z,19.37
2022-12-11T15:29:35.303Z,18.77
2022-12-11T15:32:14.410Z,19.10
2022-12-11T15:34:51.096Z,18.03
2022-12-11T15:37:33.111Z,17.23
2022-12-11T15:40:02.645Z,17.60
2022-12-11T15:42:32.961Z,16.53
2022-12-11T15:45:01.090Z,17.80
2022-12-11T15:47:30.319Z,16.83
2022-12-11T15:50:03.971Z,16.73
2022-12-11T15:52:31.663Z,17.33
2022-12-11T15:54:59.110Z,14.63
2022-12-11T15:57:26.507Z,18.13
2022-12-11T15:59:54.983Z,17.80
2022-12-11T16:02:25.146Z,18.23
2022-12-11T16:04:52.444Z,18.33
2022-12-11T16:07:25.364Z,18.87
2022-12-11T16:09:53.175Z,18.10
2022-12-11T16:12:20.740Z,18.27
2022-12-11T16:14:48.435Z,18.27
2022-12-11T16:17:16.511Z,17.63
2022-12-11T16:19:44.463Z,18.03
2022-12-11T16:22:13.742Z,19.03
2022-12-11T16:24:41.305Z,17.73
2022-12-11T16:27:12.229Z,16.93
2022-12-11T16:29:42.650Z,17.50
2022-12-11T16:32:10.347Z,18.37
2022-12-11T16:34:38.089Z,17.30
2022-12-11T16:37:07.685Z,17.07
2022-12-11T16:39:37.400Z,19.03
2022-12-11T16:42:07.845Z,18.40
2022-12-11T16:44:39.670Z,17.47
2022-12-11T16:47:10.178Z,17.57
2022-12-11T16:49:37.405Z,15.90
2022-12-11T16:52:05.551Z,18.00
2022-12-11T16:54:33.196Z,17.43
2022-12-11T16:57:00.668Z,16.43
2022-12-11T16:59:31.129Z,16.50
2022-12-11T17:02:01.570Z,17.47
2022-12-11T17:04:29.612Z,17.63
2022-12-11T17:06:56.898Z,14.40
2022-12-11T17:09:24.273Z,13.87
2022-12-11T17:11:54.745Z,15.73
2022-12-11T17:14:22.137Z,16.13
2022-12-11T17:16:49.870Z,14.23
2022-12-11T17:19:17.775Z,15.57
2022-12-11T17:21:49.965Z,16.30
2022-12-11T17:24:19.063Z,15.07
2022-12-11T17:26:47.392Z,15.57
2022-12-11T17:29:14.918Z,16.63
2022-12-11T17:31:42.252Z,14.03
2022-12-11T17:34:09.555Z,16.00
2022-12-11T17:36:37.241Z,15.33
2022-12-11T17:39:05.357Z,14.63
2022-12-11T17:41:32.595Z,15.10
2022-12-11T17:44:00.069Z,15.60
2022-12-11T17:46:27.413Z,15.83
2022-12-11T17:48:54.841Z,16.87
2022-12-11T17:51:24.204Z,17.37
2022-12-11T17:53:53.134Z,16.67
2022-12-11T17:56:20.638Z,15.23
2022-12-11T17:58:48.234Z,13.97
2022-12-11T18:01:15.643Z,15.23
2022-12-11T18:03:43.239Z,14.53
2022-12-11T18:06:14.810Z,16.10
2022-12-11T18:08:43.770Z,15.77
2022-12-11T18:11:15.628Z,15.20
2022-12-11T18:13:44.287Z,14.87
2022-12-11T18:16:21.370Z,15.90
2022-12-11T18:18:50.598Z,16.60
2022-12-11T18:21:25.995Z,16.37
2022-12-11T18:23:53.945Z,15.47
2022-12-11T18:26:21.919Z,16.93
2022-12-11T18:28:50.629Z,15.50
2022-12-11T18:31:20.395Z,15.17
2022-12-11T18:33:48.397Z,15.47
2022-12-11T18:36:18.554Z,15.27
2022-12-11T18:38:48.167Z,14.30
2022-12-11T18:41:17.137Z,14.60
2022-12-11T18:43:44.843Z,14.43
2022-12-11T18:46:14.823Z,15.17
2022-12-11T18:48:43.655Z,14.13
2022-12-11T18:51:14.167Z,16.47
2022-12-11T18:53:41.723Z,14.57
2022-12-11T18:56:13.099Z,16.37
2022-12-11T18:58:40.941Z,15.83
2022-12-11T19:01:16.296Z,14.27
2022-12-11T19:03:43.554Z,14.87
2022-12-11T19:06:13.806Z,14.23
2022-12-11T19:08:41.832Z,13.13
2022-12-11T19:11:09.615Z,12.60
2022-12-11T19:13:36.874Z,12.53
2022-12-11T19:16:05.218Z,12.73
2022-12-11T19:18:32.525Z,13.50
2022-12-11T19:21:08.374Z,12.57
2022-12-11T19:23:36.857Z,13.10
2022-12-11T19:26:08.160Z,14.17
2022-12-11T19:28:35.549Z,14.83
2022-12-11T19:31:02.998Z,13.93
2022-12-11T19:33:30.381Z,14.87
2022-12-11T19:36:05.797Z,12.80
2022-12-11T19:38:33.352Z,12.93
2022-12-11T19:41:08.916Z,12.33
2022-12-11T19:43:37.240Z,13.27
2022-12-11T19:46:06.912Z,14.43
2022-12-11T19:48:38.580Z,14.23
2022-12-11T19:51:14.204Z,14.37
2022-12-11T19:53:43.078Z,14.07
2022-12-11T19:56:12.518Z,14.57
2022-12-11T19:58:43.372Z,14.10
2022-12-11T20:01:18.309Z,14.40
2022-12-11T20:03:45.706Z,14.93
2022-12-11T20:06:13.939Z,15.60
2022-12-11T20:08:46.008Z,14.73
2022-12-11T20:11:18.308Z,15.03
2022-12-11T20:13:48.344Z,15.00
2022-12-11T20:16:17.479Z,15.70
2022-12-11T20:18:44.946Z,15.67
2022-12-11T20:21:15.747Z,15.23
2022-12-11T20:23:43.641Z,15.83
2022-12-11T20:26:14.430Z,15.03
2022-12-11T20:28:42.154Z,16.50
2022-12-11T20:31:19.958Z,16.53
2022-12-11T20:33:49.503Z,15.70
2022-12-11T20:36:18.959Z,14.53
2022-12-11T20:38:46.397Z,15.37
2022-12-11T20:41:15.836Z,14.80
2022-12-11T20:43:43.568Z,14.90
2022-12-11T20:46:13.108Z,15.37
2022-12-11T20:48:42.695Z,13.53
2022-12-11T20:51:11.917Z,13.97
2022-12-11T20:53:40.290Z,15.50
2022-12-11T20:56:15.654Z,14.13
2022-12-11T20:58:43.536Z,13.67
2022-12-11T21:01:15.492Z,13.53
2022-12-11T21:03:43.605Z,13.73
2022-12-11T21:06:26.500Z,14.63
2022-12-11T21:08:55.037Z,14.43
2022-12-11T21:11:23.041Z,14.33
2022-12-11T21:13:51.287Z,15.07
2022-12-11T21:16:20.144Z,14.10
2022-12-11T21:18:48.482Z,14.97
2022-12-11T21:21:16.041Z,15.67
2022-12-11T21:23:43.875Z,16.63
2022-12-11T21:26:11.597Z,16.80
2022-12-11T21:28:39.155Z,16.90
2022-12-11T21:31:09.206Z,16.43
2022-12-11T21:33:36.997Z,16.60
2022-12-11T21:36:06.184Z,18.00
2022-12-11T21:38:33.975Z,16.93
2022-12-11T21:41:19.718Z,17.07
2022-12-11T21:45:21.202Z,16.90
2022-12-11T21:46:38.791Z,17.27
2022-12-11T21:49:08.554Z,15.97
2022-12-11T21:51:41.493Z,16.53
2022-12-11T21:54:15.764Z,17.27
2022-12-11T21:56:43.294Z,16.20
2022-12-11T21:59:10.700Z,16.60
2022-12-11T22:01:42.319Z,15.70
2022-12-11T22:04:11.148Z,17.73
2022-12-11T22:06:40.243Z,17.73
2022-12-11T22:09:07.561Z,15.77
2022-12-11T22:11:35.792Z,16.13
2022-12-11T22:14:04.296Z,14.63
2022-12-11T22:16:31.665Z,16.33
2022-12-11T22:18:59.090Z,16.47
2022-12-11T22:21:26.784Z,16.60
2022-12-11T22:23:54.225Z,16.13
2022-12-11T22:26:25.996Z,16.57
2022-12-11T22:28:54.167Z,15.00
2022-12-11T22:31:24.157Z,17.03
2022-12-11T22:33:56.033Z,17.50
2022-12-11T22:36:25.544Z,15.90
2022-12-11T22:38:53.183Z,17.07
2022-12-11T22:41:26.839Z,16.20
2022-12-11T22:43:54.597Z,15.83
2022-12-11T22:46:24.934Z,16.57
2022-12-11T22:48:52.560Z,16.90
2022-12-11T22:51:20.620Z,16.60
2022-12-11T22:53:48.170Z,17.17
2022-12-11T22:56:15.556Z,16.90
2022-12-11T22:58:43.233Z,16.73
2022-12-11T23:01:19.992Z,16.30
2022-12-11T23:03:48.081Z,15.97
2022-12-11T23:06:17.476Z,16.23
2022-12-11T23:08:45.260Z,17.07
2022-12-11T23:11:26.120Z,16.97
2022-12-11T23:13:54.191Z,15.87
2022-12-11T23:16:23.391Z,16.40
2022-12-11T23:18:51.053Z,16.47
2022-12-11T23:21:18.475Z,18.33
2022-12-11T23:23:45.915Z,15.77
2022-12-11T23:26:13.816Z,16.03
2022-12-11T23:28:42.068Z,16.73
2022-12-11T23:31:09.689Z,16.33
2022-12-11T23:33:37.736Z,16.20
2022-12-11T23:36:07.049Z,15.60
2022-12-11T23:38:34.799Z,16.40
2022-12-11T23:41:05.783Z,16.70
2022-12-11T23:43:35.218Z,15.83
2022-12-11T23:46:04.849Z,15.80
2022-12-11T23:48:32.191Z,15.70
2022-12-11T23:51:01.814Z,17.43
2022-12-11T23:53:29.830Z,15.50
2022-12-11T23:56:02.416Z,15.60
2022-12-11T23:58:30.143Z,15.90
